WetterOnline ( https://www.wetteronline.de )

Wetter aktuell Fehmarn

Aktuelles Wetter: Westermarkelsdorf (9m)

6-stündlich | Neueste Meldungen
Ortszeit Temperatur Wetter
Sa, 15.06. 2:00 14.2° C wolkig
Fr, 14.06. 20:00 18.2° C fast wolkenlos
Fr, 14.06. 14:00 19.6° C leicht bewölkt
Fr, 14.06. 8:00 14.1° C wolkig
Fr, 14.06. 2:00 11.6° C bedeckt
Do, 13.06. 20:00 13.0° C bedeckt
Do, 13.06. 14:00 11.0° C leichter Regen
Do, 13.06. 8:00 11.3° C wolkig
Ortszeit Temperatur Wetter
Sa, 15.06. 2:00 14.2° C wolkig
Sa, 15.06. 1:50 14.2° C wolkig
Sa, 15.06. 1:40 14.3° C bedeckt
Sa, 15.06. 1:30 14.6° C bewölkt
Sa, 15.06. 1:20 14.6° C bewölkt
Sa, 15.06. 1:10 14.8° C bedeckt
Sa, 15.06. 1:00 15.4° C bewölkt
Sa, 15.06. 0:30 15.5° C bedeckt
Sa, 15.06. 0:00 15.9° C bedeckt
Fr, 14.06. 23:30 16.0° C bedeckt
Fr, 14.06. 23:00 16.0° C bedeckt
Ortszeit Relative Feuchte Sichtweite
Sa, 15.06. 2:00 89% 45 km
Fr, 14.06. 20:00 64% >70 km
Fr, 14.06. 14:00 55% 55 km
Fr, 14.06. 8:00 72% 50 km
Fr, 14.06. 2:00 87% 40 km
Do, 13.06. 20:00 75% 50 km
Do, 13.06. 14:00 77% 30 km
Do, 13.06. 8:00 77% 50 km
Ortszeit Relative Feuchte Sichtweite
Sa, 15.06. 2:00 89% 45 km
Sa, 15.06. 1:50 89% -
Sa, 15.06. 1:40 89% -
Sa, 15.06. 1:30 87% 45 km
Sa, 15.06. 1:20 87% -
Sa, 15.06. 1:10 87% -
Sa, 15.06. 1:00 81% 55 km
Sa, 15.06. 0:30 82% 60 km
Sa, 15.06. 0:00 79% 65 km
Fr, 14.06. 23:30 79% 65 km
Fr, 14.06. 23:00 78% 55 km
Ortszeit Niederschlagsmenge Niederschlagsart
Sa, 15.06. 2:00 0.0 l/m2 in 6 Std. -
Fr, 14.06. 20:00 0.0 l/m2 in 12 Std. -
Fr, 14.06. 14:00 0.0 l/m2 in 6 Std. -
Fr, 14.06. 8:00 0.1 l/m2 in 12 Std. -
Fr, 14.06. 2:00 0.1 l/m2 in 6 Std. Regen
Do, 13.06. 20:00 0.2 l/m2 in 12 Std. Regen
Do, 13.06. 14:00 0.2 l/m2 in 6 Std. Regen
Do, 13.06. 8:00 0.1 l/m2 in 12 Std. -
Ortszeit Niederschlagsmenge Niederschlagsart
Sa, 15.06. 2:00 0.0 l/m2 in 1 Std. -
Sa, 15.06. 1:50 keine Meldung -
Sa, 15.06. 1:40 keine Meldung -
Sa, 15.06. 1:30 0.0 l/m2 in 30 Min -
Sa, 15.06. 1:20 keine Meldung -
Sa, 15.06. 1:10 keine Meldung -
Sa, 15.06. 1:00 0.0 l/m2 in 1 Std. -
Sa, 15.06. 0:30 0.0 l/m2 in 30 Min -
Sa, 15.06. 0:00 0.0 l/m2 in 1 Std. -
Fr, 14.06. 23:30 0.0 l/m2 in 30 Min -
Fr, 14.06. 23:00 0.0 l/m2 in 1 Std. -
Ortszeit Stärke Spitze Richtung
km/h Bft. km/h Grad Sektor
Sa, 15.06. 2:00 15 3 28 130° SO
Fr, 14.06. 20:00 14 3 36 120° SO
Fr, 14.06. 14:00 22 4 41 140° SO
Fr, 14.06. 8:00 18 3 32 150° SO
Fr, 14.06. 2:00 9 2 31 160° S
Do, 13.06. 20:00 22 4 43 240° SW
Do, 13.06. 14:00 30 5 39 280° W
Do, 13.06. 8:00 31 5 43 250° W
Ortszeit Stärke Spitze Richtung
km/h Bft. km/h Grad Sektor
Sa, 15.06. 2:00 15 3 22 130° SO
Sa, 15.06. 1:50 15 3 - 130° SO
Sa, 15.06. 1:40 14 3 - 130° SO
Sa, 15.06. 1:30 14 3 22 130° SO
Sa, 15.06. 1:20 14 3 - 130° SO
Sa, 15.06. 1:10 14 3 - 130° SO
Sa, 15.06. 1:00 14 3 25 140° SO
Sa, 15.06. 0:30 14 3 25 140° SO
Sa, 15.06. 0:00 17 3 28 140° SO
Fr, 14.06. 23:30 14 3 29 140° SO
Fr, 14.06. 23:00 15 3 24 140° SO
Ortszeit Untergrenze Bedeckung Gattung
total tief tief mittel hoch
Sa, 15.06. 2:00 1800 m 8/8 2/8 - - -
Fr, 14.06. 20:00 3000 m 1/8 1/8 - - -
Fr, 14.06. 14:00 2100 m 2/8 2/8 - - -
Fr, 14.06. 8:00 2700 m 8/8 2/8 - - -
Fr, 14.06. 2:00 1800 m 8/8 8/8 - - -
Do, 13.06. 20:00 690 m 8/8 8/8 - - -
Do, 13.06. 14:00 990 m 8/8 8/8 - - -
Do, 13.06. 8:00 540 m 7/8 5/8 - - -
Ortszeit Bedeckungsgrad in Achtel und Wolkenuntergrenze
Sa, 15.06. 2:00 2(1800m) 8(3000m) 8(8100m)
Sa, 15.06. 1:50 2(1800m) 8(3000m) 8(8100m)
Sa, 15.06. 1:40 8
Sa, 15.06. 1:30 6(1800m) 8(3000m) 8(8400m)
Sa, 15.06. 1:20 6(1800m) 8(3000m) 8(8400m)
Sa, 15.06. 1:10 8
Sa, 15.06. 1:00 5(2100m) 8(3000m)
Sa, 15.06. 0:30 8(3300m)
Sa, 15.06. 0:00 8(3000m)
Fr, 14.06. 23:30 8(2700m)
Fr, 14.06. 23:00 8(2700m)
Ortszeit Luftdruck NN (hPa) Tendenz (hPa in 3 Std.)
Sa, 15.06. 2:00 1006 - 1,7
Fr, 14.06. 20:00 1009 - 0,7
Fr, 14.06. 14:00 1010 - 0,9
Fr, 14.06. 8:00 1011 - 1,0
Fr, 14.06. 2:00 1014 - 1,0
Do, 13.06. 20:00 1015 - 0,4
Do, 13.06. 14:00 1016 + 0,1
Do, 13.06. 8:00 1016 + 0,5
Ortszeit Luftdruck NN (hPa) Tendenz (hPa in 3 Std.)
Sa, 15.06. 2:00 1006 - 1,7
Sa, 15.06. 1:50 1006 keine Meldung
Sa, 15.06. 1:40 1007 keine Meldung
Sa, 15.06. 1:30 1007 - 1,2
Sa, 15.06. 1:20 1007 keine Meldung
Sa, 15.06. 1:10 1007 keine Meldung
Sa, 15.06. 1:00 1007 - 0,9
Sa, 15.06. 0:30 1007 - 0,8
Sa, 15.06. 0:00 1008 - 0,5
Fr, 14.06. 23:30 1008 - 0,4
Fr, 14.06. 23:00 1008 - 0,5
Ortszeit Schneehöhe (cm)
Sa, 15.06. 2:00 0
Fr, 14.06. 20:00 0
Fr, 14.06. 14:00 0
Fr, 14.06. 8:00 0
Fr, 14.06. 2:00 0
Do, 13.06. 20:00 0
Do, 13.06. 14:00 0
Do, 13.06. 8:00 0
Ortszeit Schneehöhe (cm)
Sa, 15.06. 2:00 0
Sa, 15.06. 1:50 0
Sa, 15.06. 1:40 -
Sa, 15.06. 1:30 0
Sa, 15.06. 1:20 0
Sa, 15.06. 1:10 -
Sa, 15.06. 1:00 0
Sa, 15.06. 0:30 0
Sa, 15.06. 0:00 0
Fr, 14.06. 23:30 0
Fr, 14.06. 23:00 0
Link zu dieser Seite / Seite empfehlen

Das Wetter in ...